Time,TemperatureF,DewpointF,PressureIn,WindDirection,WindDirectionDegrees,WindSpeedMPH,WindSpeedGustMPH,Humidity,HourlyPrecipIn,Conditions,Clouds,dailyrainin,SoftwareType,DateUTC
2013-12-04 00:00:00,34.0,31.8,29.99,NNW,329,0.0,0.0,92,0.00,,,0.00,meteobridge,2013-12-04 05:00:00,
2013-12-04 00:02:00,34.0,31.8,29.99,NNW,329,0.0,0.0,92,0.00,,,0.00,meteobridge,2013-12-04 05:02:00,
2013-12-04 00:04:00,33.8,31.6,29.99,NNW,329,0.0,0.0,92,0.00,,,0.00,meteobridge,2013-12-04 05:04:00,
2013-12-04 00:06:00,33.8,31.6,29.99,NNW,328,0.0,0.0,92,0.00,,,0.00,meteobridge,2013-12-04 05:06:00,
2013-12-04 00:08:00,33.6,31.5,29.99,NNW,329,0.0,0.0,92,0.00,,,0.00,meteobridge,2013-12-04 05:08:00,
2013-12-04 00:14:00,33.4,31.3,29.99,NNW,329,0.0,0.0,92,0.00,,,0.00,meteobridge,2013-12-04 05:14:00,
2013-12-04 00:20:00,33.4,31.6,30.00,NNW,329,0.0,0.0,93,0.00,,,0.00,meteobridge,2013-12-04 05:20:00,
2013-12-04 00:27:00,33.3,31.5,30.00,NNW,328,0.0,0.0,93,0.00,,,0.00,meteobridge,2013-12-04 05:27:00,
2013-12-04 00:33:00,33.4,31.6,30.00,NNW,329,0.0,0.0,93,0.00,,,0.00,meteobridge,2013-12-04 05:33:00,
2013-12-04 00:39:00,33.4,31.6,30.00,NNW,329,0.0,0.0,93,0.00,,,0.00,meteobridge,2013-12-04 05:39:00,
2013-12-04 00:45:00,33.4,31.6,30.01,NNW,329,0.0,0.0,93,0.00,,,0.00,meteobridge,2013-12-04 05:45:00,
2013-12-04 00:51:00,33.4,31.6,30.01,NNW,328,0.0,0.0,93,0.00,,,0.00,meteobridge,2013-12-04 05:51:00,
2013-12-04 00:58:00,33.4,31.6,30.01,NNW,329,0.0,0.0,93,0.00,,,0.00,meteobridge,2013-12-04 05:58:00,
2013-12-04 01:04:00,33.4,31.6,30.01,NNW,329,0.0,0.0,93,0.00,,,0.00,meteobridge,2013-12-04 06:04:00,
2013-12-04 01:10:00,33.3,31.5,30.00,NNW,328,0.0,0.0,93,0.00,,,0.00,meteobridge,2013-12-04 06:10:00,
2013-12-04 01:17:00,33.3,31.5,30.00,NNW,328,0.0,0.0,93,0.00,,,0.00,meteobridge,2013-12-04 06:17:00,
2013-12-04 01:23:00,33.1,31.3,30.00,NNW,328,0.0,0.0,93,0.00,,,0.00,meteobridge,2013-12-04 06:23:00,
2013-12-04 01:29:00,32.7,30.9,30.00,NNW,329,0.0,0.0,93,0.00,,,0.00,meteobridge,2013-12-04 06:29:00,
2013-12-04 01:35:00,32.9,31.1,30.01,NNW,328,0.0,0.0,93,0.00,,,0.00,meteobridge,2013-12-04 06:35:00,
2013-12-04 01:41:00,33.3,31.5,30.01,NNW,328,0.0,0.0,93,0.00,,,0.00,meteobridge,2013-12-04 06:41:00,
2013-12-04 01:48:00,33.3,31.5,30.01,NNW,329,0.9,0.9,93,0.00,,,0.00,meteobridge,2013-12-04 06:48:00,
2013-12-04 01:54:00,33.3,31.5,30.01,NNW,328,0.0,0.0,93,0.00,,,0.00,meteobridge,2013-12-04 06:54:00,
2013-12-04 02:00:00,33.1,31.3,30.01,NNW,329,0.0,0.9,93,0.00,,,0.00,meteobridge,2013-12-04 07:00:00,
2013-12-04 02:07:00,32.7,30.9,30.02,NNW,329,0.0,0.0,93,0.00,,,0.00,meteobridge,2013-12-04 07:07:00,
2013-12-04 02:13:00,32.7,30.9,30.02,NNW,329,0.0,0.0,93,0.00,,,0.00,meteobridge,2013-12-04 07:13:00,
2013-12-04 02:19:00,32.2,30.4,30.02,NNW,329,0.0,0.0,93,0.00,,,0.00,meteobridge,2013-12-04 07:19:00,
2013-12-04 02:25:00,31.8,30.0,30.02,NNW,329,0.0,0.0,93,0.00,,,0.00,meteobridge,2013-12-04 07:25:00,
2013-12-04 02:31:00,31.5,29.7,30.02,NNW,328,0.0,0.0,93,0.00,,,0.00,meteobridge,2013-12-04 07:31:00,
2013-12-04 02:38:00,31.5,29.7,30.02,NNW,329,0.0,0.0,93,0.00,,,0.00,meteobridge,2013-12-04 07:38:00,
2013-12-04 02:44:00,31.6,29.8,30.02,NNW,328,0.0,0.0,93,0.00,,,0.00,meteobridge,2013-12-04 07:44:00,
2013-12-04 02:50:00,31.8,30.0,30.02,NNW,329,0.0,0.0,93,0.00,,,0.00,meteobridge,2013-12-04 07:50:00,
2013-12-04 02:56:00,32.0,30.2,30.02,NNW,329,0.0,0.0,93,0.00,,,0.00,meteobridge,2013-12-04 07:56:00,
2013-12-04 03:02:00,32.2,30.4,30.02,NNW,328,0.0,0.9,93,0.00,,,0.00,meteobridge,2013-12-04 08:02:00,
2013-12-04 03:09:00,32.2,30.4,30.02,NNW,329,0.0,0.0,93,0.00,,,0.00,meteobridge,2013-12-04 08:09:00,
2013-12-04 03:15:00,32.4,30.6,30.02,NNW,329,0.0,0.0,93,0.00,,,0.00,meteobridge,2013-12-04 08:15:00,
2013-12-04 03:21:00,32.2,30.4,30.02,NNW,329,0.0,0.0,93,0.00,,,0.00,meteobridge,2013-12-04 08:21:00,
2013-12-04 03:27:00,32.4,30.6,30.02,NNW,328,0.0,0.0,93,0.00,,,0.00,meteobridge,2013-12-04 08:27:00,
2013-12-04 03:34:00,32.4,30.6,30.02,NNW,329,0.0,0.0,93,0.00,,,0.00,meteobridge,2013-12-04 08:34:00,
2013-12-04 03:40:00,32.4,30.6,30.02,NNW,329,0.0,0.0,93,0.00,,,0.00,meteobridge,2013-12-04 08:40:00,
2013-12-04 03:46:00,32.7,30.9,30.02,NNW,329,0.0,0.0,93,0.00,,,0.00,meteobridge,2013-12-04 08:46:00,
2013-12-04 03:52:00,32.7,30.9,30.02,NNW,329,0.0,0.0,93,0.00,,,0.00,meteobridge,2013-12-04 08:52:00,
2013-12-04 03:59:00,33.1,31.3,30.02,NNW,329,0.0,0.0,93,0.00,,,0.00,meteobridge,2013-12-04 08:59:00,
2013-12-04 04:05:00,32.7,30.9,30.02,NNW,329,0.0,0.9,93,0.00,,,0.00,meteobridge,2013-12-04 09:05:00,
2013-12-04 04:11:00,32.9,31.1,30.03,NNW,328,0.0,0.0,93,0.00,,,0.00,meteobridge,2013-12-04 09:11:00,
2013-12-04 04:17:00,33.1,31.3,30.02,NNW,328,0.0,0.0,93,0.00,,,0.00,meteobridge,2013-12-04 09:17:00,
2013-12-04 04:24:00,32.9,31.1,30.02,NNW,328,0.0,0.0,93,0.00,,,0.00,meteobridge,2013-12-04 09:24:00,
2013-12-04 04:30:00,33.1,31.3,30.02,NNW,329,0.0,0.0,93,0.00,,,0.00,meteobridge,2013-12-04 09:30:00,
2013-12-04 04:36:00,33.1,31.3,30.03,NNW,328,0.0,0.0,93,0.00,,,0.00,meteobridge,2013-12-04 09:36:00,
2013-12-04 04:42:00,33.1,31.3,30.03,NNW,329,0.0,0.0,93,0.00,,,0.00,meteobridge,2013-12-04 09:42:00,
2013-12-04 04:49:00,33.3,31.5,30.03,NNW,328,0.0,0.0,93,0.00,,,0.00,meteobridge,2013-12-04 09:49:00,
2013-12-04 04:55:00,33.3,31.5,30.03,NNW,329,0.0,0.0,93,0.00,,,0.00,meteobridge,2013-12-04 09:55:00,
2013-12-04 05:01:00,33.4,31.6,30.04,NNW,329,0.0,0.0,93,0.00,,,0.00,meteobridge,2013-12-04 10:01:00,
2013-12-04 05:07:00,33.4,31.6,30.04,NNW,329,0.0,0.0,93,0.00,,,0.00,meteobridge,2013-12-04 10:07:00,
2013-12-04 05:14:00,33.4,31.6,30.05,NNW,328,0.0,0.0,93,0.00,,,0.00,meteobridge,2013-12-04 10:14:00,
2013-12-04 05:20:00,33.4,31.6,30.05,NNW,330,0.0,0.0,93,0.00,,,0.00,meteobridge,2013-12-04 10:20:00,
2013-12-04 05:26:00,33.3,31.5,30.05,NNW,330,0.0,0.0,93,0.00,,,0.00,meteobridge,2013-12-04 10:26:00,
2013-12-04 05:32:00,33.3,31.5,30.05,NNW,329,0.0,0.0,93,0.00,,,0.00,meteobridge,2013-12-04 10:32:00,
2013-12-04 05:39:00,33.3,31.5,30.05,NNW,328,0.0,0.0,93,0.00,,,0.00,meteobridge,2013-12-04 10:39:00,
2013-12-04 05:45:00,32.9,31.1,30.05,NNW,329,0.0,0.0,93,0.00,,,0.00,meteobridge,2013-12-04 10:45:00,
2013-12-04 05:51:00,32.7,30.9,30.05,NNW,329,0.0,0.0,93,0.00,,,0.00,meteobridge,2013-12-04 10:51:00,
2013-12-04 05:57:00,32.7,30.9,30.05,NNW,328,0.0,0.0,93,0.00,,,0.00,meteobridge,2013-12-04 10:57:00,
2013-12-04 06:03:00,32.7,30.9,30.05,NNW,328,0.0,0.0,93,0.00,,,0.00,meteobridge,2013-12-04 11:03:00,
2013-12-04 06:10:00,32.4,30.6,30.05,NNW,328,0.0,0.0,93,0.00,,,0.00,meteobridge,2013-12-04 11:10:00,
2013-12-04 06:16:00,32.2,30.4,30.05,NNW,328,0.0,0.0,93,0.00,,,0.00,meteobridge,2013-12-04 11:16:00,
2013-12-04 06:22:00,32.2,30.4,30.05,NNW,328,0.0,0.0,93,0.00,,,0.00,meteobridge,2013-12-04 11:22:00,
2013-12-04 06:29:00,32.2,30.6,30.06,NNW,329,0.0,0.0,94,0.00,,,0.00,meteobridge,2013-12-04 11:29:00,
2013-12-04 06:35:00,32.2,30.6,30.05,NNW,329,0.0,0.0,94,0.00,,,0.00,meteobridge,2013-12-04 11:35:00,
2013-12-04 06:41:00,32.2,30.6,30.05,NNW,329,0.0,0.0,94,0.00,,,0.00,meteobridge,2013-12-04 11:41:00,
2013-12-04 06:47:00,32.5,30.9,30.05,NNW,329,0.0,0.0,94,0.00,,,0.00,meteobridge,2013-12-04 11:47:00,
2013-12-04 06:53:00,33.1,31.5,30.05,NNW,329,0.0,0.0,94,0.00,,,0.00,meteobridge,2013-12-04 11:53:00,
2013-12-04 07:00:00,33.1,31.5,30.06,NNW,329,0.0,0.0,94,0.00,,,0.00,meteobridge,2013-12-04 12:00:00,
2013-12-04 07:06:00,33.4,31.8,30.06,North,352,0.0,0.0,94,0.00,,,0.00,meteobridge,2013-12-04 12:06:00,
2013-12-04 07:12:00,33.3,31.6,30.05,North,352,0.0,0.0,94,0.00,,,0.00,meteobridge,2013-12-04 12:12:00,
2013-12-04 07:18:00,33.1,31.5,30.06,North,352,0.0,0.0,94,0.00,,,0.00,meteobridge,2013-12-04 12:18:00,
2013-12-04 07:25:00,32.9,31.3,30.06,North,352,0.0,0.0,94,0.00,,,0.00,meteobridge,2013-12-04 12:25:00,
2013-12-04 07:31:00,32.9,31.3,30.06,North,352,0.0,0.0,94,0.00,,,0.00,meteobridge,2013-12-04 12:31:00,
2013-12-04 07:37:00,32.7,31.1,30.05,North,351,0.0,0.0,94,0.00,,,0.00,meteobridge,2013-12-04 12:37:00,
2013-12-04 07:43:00,32.7,31.1,30.05,North,352,0.0,0.0,94,0.00,,,0.00,meteobridge,2013-12-04 12:43:00,
2013-12-04 07:50:00,33.1,31.5,30.05,ESE,117,0.9,2.0,94,0.00,,,0.00,meteobridge,2013-12-04 12:50:00,
2013-12-04 07:56:00,33.3,31.6,30.06,SSE,158,0.0,0.9,94,0.00,,,0.00,meteobridge,2013-12-04 12:56:00,
2013-12-04 08:02:00,33.6,32.0,30.05,ESE,107,2.0,2.0,94,0.00,,,0.00,meteobridge,2013-12-04 13:02:00,
2013-12-04 08:08:00,34.0,32.4,30.05,ESE,110,2.9,2.9,94,0.00,,,0.00,meteobridge,2013-12-04 13:08:00,
2013-12-04 08:14:00,34.3,32.7,30.05,ESE,115,2.0,2.9,94,0.00,,,0.00,meteobridge,2013-12-04 13:14:00,
2013-12-04 08:21:00,34.7,32.9,30.05,SE,137,0.9,2.0,93,0.00,,,0.00,meteobridge,2013-12-04 13:21:00,
2013-12-04 08:27:00,35.1,33.3,30.05,SE,143,0.9,2.9,93,0.00,,,0.00,meteobridge,2013-12-04 13:27:00,
2013-12-04 08:33:00,35.4,33.6,30.05,SSE,149,4.0,4.0,93,0.00,,,0.00,meteobridge,2013-12-04 13:33:00,
2013-12-04 08:39:00,36.0,34.2,30.06,SSE,149,0.9,2.0,93,0.00,,,0.00,meteobridge,2013-12-04 13:39:00,
2013-12-04 08:46:00,36.3,34.5,30.07,SSE,156,0.0,0.9,93,0.00,,,0.00,meteobridge,2013-12-04 13:46:00,
2013-12-04 08:52:00,36.7,34.9,30.07,SSE,155,0.0,0.0,93,0.00,,,0.00,meteobridge,2013-12-04 13:52:00,
2013-12-04 08:58:00,37.2,35.4,30.07,ESE,117,0.0,0.0,93,0.00,,,0.00,meteobridge,2013-12-04 13:58:00,
2013-12-04 09:05:00,37.9,35.8,30.08,SE,145,0.0,0.0,92,0.00,,,0.00,meteobridge,2013-12-04 14:05:00,
2013-12-04 09:11:00,38.8,36.7,30.08,SE,136,0.0,0.9,92,0.00,,,0.00,meteobridge,2013-12-04 14:11:00,
2013-12-04 09:17:00,39.9,36.9,30.09,SSE,163,0.9,2.0,89,0.00,,,0.00,meteobridge,2013-12-04 14:17:00,
2013-12-04 09:23:00,40.1,36.9,30.08,SE,138,0.0,2.0,88,0.00,,,0.00,meteobridge,2013-12-04 14:23:00,
2013-12-04 09:29:00,40.8,37.0,30.08,East,91,0.9,2.0,86,0.00,,,0.00,meteobridge,2013-12-04 14:29:00,
2013-12-04 09:35:00,41.4,37.8,30.09,SW,228,0.0,0.9,87,0.00,,,0.00,meteobridge,2013-12-04 14:35:00,
2013-12-04 09:42:00,42.1,37.6,30.09,ESE,112,2.0,2.0,84,0.00,,,0.00,meteobridge,2013-12-04 14:42:00,
2013-12-04 09:48:00,42.1,37.6,30.09,SSE,149,0.0,0.9,84,0.00,,,0.00,meteobridge,2013-12-04 14:48:00,
2013-12-04 09:54:00,42.4,37.9,30.09,SE,135,0.0,0.9,84,0.00,,,0.00,meteobridge,2013-12-04 14:54:00,
2013-12-04 10:00:00,43.0,37.9,30.09,South,173,0.0,0.9,82,0.00,,,0.00,meteobridge,2013-12-04 15:00:00,
2013-12-04 10:06:00,43.2,38.1,30.09,SSW,193,0.0,0.9,82,0.00,,,0.00,meteobridge,2013-12-04 15:06:00,
2013-12-04 10:12:00,44.1,38.7,30.10,SE,132,2.0,2.9,81,0.00,,,0.00,meteobridge,2013-12-04 15:12:00,
2013-12-04 10:19:00,44.4,38.3,30.10,SSE,162,0.9,0.9,79,0.00,,,0.00,meteobridge,2013-12-04 15:19:00,
2013-12-04 10:25:00,44.4,38.3,30.10,SSE,148,2.0,2.9,79,0.00,,,0.00,meteobridge,2013-12-04 15:25:00,
2013-12-04 10:31:00,44.8,38.3,30.09,SW,228,2.0,2.0,78,0.00,,,0.00,meteobridge,2013-12-04 15:31:00,
2013-12-04 10:37:00,45.0,38.5,30.09,ESE,117,2.0,2.0,78,0.00,,,0.00,meteobridge,2013-12-04 15:37:00,
2013-12-04 10:43:00,45.3,38.1,30.09,SE,135,0.0,2.0,76,0.00,,,0.00,meteobridge,2013-12-04 15:43:00,
2013-12-04 10:50:00,45.9,38.3,30.09,SW,226,2.0,2.0,75,0.00,,,0.00,meteobridge,2013-12-04 15:50:00,
2013-12-04 10:56:00,46.0,38.8,30.09,SSE,158,2.0,2.9,76,0.00,,,0.00,meteobridge,2013-12-04 15:56:00,
2013-12-04 11:02:00,46.6,38.7,30.09,East,88,0.9,0.9,74,0.00,,,0.00,meteobridge,2013-12-04 16:02:00,
2013-12-04 11:09:00,47.5,39.2,30.09,SSE,153,0.9,2.0,73,0.00,,,0.00,meteobridge,2013-12-04 16:09:00,
2013-12-04 11:15:00,47.7,39.0,30.09,SW,224,0.9,2.9,72,0.00,,,0.00,meteobridge,2013-12-04 16:15:00,
2013-12-04 11:21:00,48.0,39.0,30.09,SW,222,2.0,2.9,71,0.00,,,0.00,meteobridge,2013-12-04 16:21:00,
2013-12-04 11:27:00,48.7,39.7,30.09,SSW,203,0.9,2.0,71,0.00,,,0.00,meteobridge,2013-12-04 16:27:00,
2013-12-04 11:33:00,48.6,39.2,30.09,SW,225,2.0,2.9,70,0.00,,,0.00,meteobridge,2013-12-04 16:33:00,
2013-12-04 11:39:00,48.4,39.4,30.09,SE,128,0.9,2.0,71,0.00,,,0.00,meteobridge,2013-12-04 16:39:00,
2013-12-04 11:45:00,48.0,38.7,30.09,SSW,213,0.9,0.9,70,0.00,,,0.00,meteobridge,2013-12-04 16:45:00,
2013-12-04 11:52:00,47.8,38.8,30.09,SSW,211,0.0,0.9,71,0.00,,,0.00,meteobridge,2013-12-04 16:52:00,
2013-12-04 11:58:00,47.8,39.2,30.09,SSE,167,0.9,2.0,72,0.00,,,0.00,meteobridge,2013-12-04 16:58:00,
2013-12-04 12:05:00,47.7,39.0,30.09,SSE,158,2.0,2.9,72,0.00,,,0.00,meteobridge,2013-12-04 17:05:00,
2013-12-04 12:11:00,47.5,38.8,30.08,SSE,156,0.9,2.9,72,0.00,,,0.00,meteobridge,2013-12-04 17:11:00,
2013-12-04 12:17:00,47.3,39.0,30.08,SSE,155,0.9,2.0,73,0.00,,,0.00,meteobridge,2013-12-04 17:17:00,
2013-12-04 12:23:00,46.9,38.7,30.08,South,172,0.9,2.0,73,0.00,,,0.00,meteobridge,2013-12-04 17:23:00,
2013-12-04 12:29:00,46.9,38.7,30.07,SE,143,0.0,2.0,73,0.00,,,0.00,meteobridge,2013-12-04 17:29:00,
2013-12-04 12:35:00,46.9,38.7,30.06,ESE,107,0.9,2.9,73,0.00,,,0.00,meteobridge,2013-12-04 17:35:00,
2013-12-04 12:42:00,47.5,39.2,30.06,SSE,149,0.0,2.0,73,0.00,,,0.00,meteobridge,2013-12-04 17:42:00,
2013-12-04 12:48:00,47.5,38.8,30.06,SSE,156,2.0,2.9,72,0.00,,,0.00,meteobridge,2013-12-04 17:48:00,
2013-12-04 12:54:00,47.5,38.8,30.06,South,172,0.9,2.0,72,0.00,,,0.00,meteobridge,2013-12-04 17:54:00,
2013-12-04 13:00:00,47.5,38.8,30.06,SE,130,0.9,2.9,72,0.00,,,0.00,meteobridge,2013-12-04 18:00:00,
2013-12-04 13:06:00,47.5,38.8,30.05,SSE,155,2.9,2.9,72,0.00,,,0.00,meteobridge,2013-12-04 18:06:00,
2013-12-04 13:12:00,47.7,39.0,30.05,SE,145,2.0,2.9,72,0.00,,,0.00,meteobridge,2013-12-04 18:12:00,
2013-12-04 13:18:00,47.7,39.0,30.05,SSE,166,2.0,2.9,72,0.00,,,0.00,meteobridge,2013-12-04 18:18:00,
2013-12-04 13:25:00,47.7,39.0,30.05,SE,145,2.0,2.0,72,0.00,,,0.00,meteobridge,2013-12-04 18:25:00,
2013-12-04 13:31:00,47.8,39.2,30.05,SSE,153,0.0,0.9,72,0.00,,,0.00,meteobridge,2013-12-04 18:31:00,
2013-12-04 13:37:00,47.8,38.8,30.05,SSE,153,0.0,0.0,71,0.00,,,0.00,meteobridge,2013-12-04 18:37:00,
2013-12-04 13:44:00,47.8,38.8,30.04,SSE,153,0.0,0.9,71,0.00,,,0.00,meteobridge,2013-12-04 18:44:00,
2013-12-04 13:50:00,48.0,39.0,30.04,SSE,148,0.9,2.0,71,0.00,,,0.00,meteobridge,2013-12-04 18:50:00,
2013-12-04 13:57:00,48.4,39.0,30.04,ESE,117,0.9,2.0,70,0.00,,,0.00,meteobridge,2013-12-04 18:57:00,
2013-12-04 14:03:00,48.6,39.2,30.04,SW,229,0.0,0.9,70,0.00,,,0.00,meteobridge,2013-12-04 19:03:00,
2013-12-04 14:09:00,48.9,39.6,30.04,SSE,150,0.0,0.9,70,0.00,,,0.00,meteobridge,2013-12-04 19:09:00,
2013-12-04 14:15:00,48.9,39.2,30.04,SSE,152,0.0,0.9,69,0.00,,,0.00,meteobridge,2013-12-04 19:15:00,
2013-12-04 14:22:00,48.9,39.2,30.04,SSE,160,0.0,0.9,69,0.00,,,0.00,meteobridge,2013-12-04 19:22:00,
2013-12-04 14:28:00,48.9,39.2,30.05,SSE,158,0.0,0.0,69,0.00,,,0.00,meteobridge,2013-12-04 19:28:00,
2013-12-04 14:34:00,49.1,39.4,30.05,SE,127,0.9,0.9,69,0.00,,,0.00,meteobridge,2013-12-04 19:34:00,
2013-12-04 14:40:00,48.9,39.2,30.05,SSE,162,0.0,2.0,69,0.00,,,0.00,meteobridge,2013-12-04 19:40:00,
2013-12-04 14:46:00,48.9,39.2,30.06,WSW,246,2.9,4.0,69,0.00,,,0.00,meteobridge,2013-12-04 19:46:00,
2013-12-04 14:53:00,48.7,39.0,30.06,WSW,256,0.9,2.0,69,0.00,,,0.00,meteobridge,2013-12-04 19:53:00,
2013-12-04 14:59:00,48.7,39.0,30.06,West,259,0.9,0.9,69,0.00,,,0.00,meteobridge,2013-12-04 19:59:00,
2013-12-04 15:05:00,48.6,39.2,30.06,WSW,257,0.0,0.9,70,0.00,,,0.00,meteobridge,2013-12-04 20:05:00,
2013-12-04 15:12:00,48.0,39.0,30.06,SW,217,2.0,2.0,71,0.00,,,0.00,meteobridge,2013-12-04 20:12:00,
2013-12-04 15:18:00,47.8,38.8,30.06,SSW,194,0.0,0.9,71,0.00,,,0.00,meteobridge,2013-12-04 20:18:00,
2013-12-04 15:24:00,47.7,39.0,30.06,SE,129,0.0,0.0,72,0.00,,,0.00,meteobridge,2013-12-04 20:24:00,
2013-12-04 15:30:00,47.1,38.5,30.06,SE,145,0.0,2.0,72,0.00,,,0.00,meteobridge,2013-12-04 20:30:00,
2013-12-04 15:37:00,47.1,38.8,30.06,SSE,153,2.0,2.0,73,0.00,,,0.00,meteobridge,2013-12-04 20:37:00,
2013-12-04 15:43:00,47.1,39.2,30.06,SSE,162,0.9,2.0,74,0.00,,,0.00,meteobridge,2013-12-04 20:43:00,
2013-12-04 15:49:00,47.1,39.2,30.06,SE,145,2.0,2.0,74,0.00,,,0.00,meteobridge,2013-12-04 20:49:00,
2013-12-04 15:55:00,46.8,38.8,30.06,SE,139,2.0,2.9,74,0.00,,,0.00,meteobridge,2013-12-04 20:55:00,
2013-12-04 16:01:00,46.8,38.8,30.06,SE,124,2.0,4.0,74,0.00,,,0.00,meteobridge,2013-12-04 21:01:00,
2013-12-04 16:07:00,46.8,38.8,30.06,SSE,152,2.9,2.9,74,0.00,,,0.00,meteobridge,2013-12-04 21:07:00,
2013-12-04 16:13:00,46.6,38.7,30.07,SE,130,0.9,2.0,74,0.00,,,0.00,meteobridge,2013-12-04 21:13:00,
2013-12-04 16:19:00,46.4,38.8,30.06,SSE,147,2.0,4.0,75,0.00,,,0.00,meteobridge,2013-12-04 21:19:00,
2013-12-04 16:26:00,46.2,38.7,30.07,SE,146,2.0,2.0,75,0.00,,,0.00,meteobridge,2013-12-04 21:26:00,
2013-12-04 16:32:00,46.2,39.0,30.07,SE,145,4.9,4.9,76,0.00,,,0.00,meteobridge,2013-12-04 21:32:00,
2013-12-04 16:38:00,46.2,39.0,30.07,SSE,162,2.0,2.9,76,0.00,,,0.00,meteobridge,2013-12-04 21:38:00,
2013-12-04 16:44:00,46.2,39.0,30.08,SE,129,0.9,2.0,76,0.00,,,0.00,meteobridge,2013-12-04 21:44:00,
2013-12-04 16:50:00,46.0,38.8,30.08,SE,134,2.0,2.0,76,0.00,,,0.00,meteobridge,2013-12-04 21:50:00,
2013-12-04 16:56:00,46.0,38.8,30.08,SE,132,0.0,2.9,76,0.00,,,0.00,meteobridge,2013-12-04 21:56:00,
2013-12-04 17:02:00,45.9,38.7,30.09,SE,136,0.9,2.9,76,0.00,,,0.00,meteobridge,2013-12-04 22:02:00,
2013-12-04 17:09:00,45.9,38.7,30.09,SE,125,0.9,2.9,76,0.00,,,0.00,meteobridge,2013-12-04 22:09:00,
2013-12-04 17:15:00,45.9,38.7,30.09,SSE,153,0.9,2.9,76,0.00,,,0.00,meteobridge,2013-12-04 22:15:00,
2013-12-04 17:21:00,45.9,39.0,30.09,SSW,205,2.9,2.9,77,0.00,,,0.00,meteobridge,2013-12-04 22:21:00,
2013-12-04 17:27:00,45.7,38.8,30.09,SE,138,0.9,2.9,77,0.00,,,0.00,meteobridge,2013-12-04 22:27:00,
2013-12-04 17:33:00,45.7,38.8,30.09,SE,141,2.9,4.0,77,0.00,,,0.00,meteobridge,2013-12-04 22:33:00,
2013-12-04 17:39:00,45.7,38.8,30.09,SE,129,2.0,2.9,77,0.00,,,0.00,meteobridge,2013-12-04 22:39:00,
2013-12-04 17:45:00,45.7,38.8,30.09,SE,129,0.9,2.0,77,0.00,,,0.00,meteobridge,2013-12-04 22:45:00,
2013-12-04 17:51:00,45.5,38.7,30.09,SE,124,2.0,2.9,77,0.00,,,0.00,meteobridge,2013-12-04 22:51:00,
2013-12-04 17:57:00,45.5,38.7,30.09,SE,136,2.0,4.0,77,0.00,,,0.00,meteobridge,2013-12-04 22:57:00,
2013-12-04 18:03:00,45.3,38.5,30.09,SE,125,0.9,2.0,77,0.00,,,0.00,meteobridge,2013-12-04 23:03:00,
2013-12-04 18:10:00,45.3,38.8,30.09,SE,130,0.9,4.0,78,0.00,,,0.00,meteobridge,2013-12-04 23:10:00,
2013-12-04 18:16:00,45.3,38.8,30.09,ESE,107,2.0,4.9,78,0.00,,,0.00,meteobridge,2013-12-04 23:16:00,
2013-12-04 18:22:00,45.3,38.8,30.09,SE,141,4.0,6.0,78,0.00,,,0.00,meteobridge,2013-12-04 23:22:00,
2013-12-04 18:28:00,45.3,38.8,30.10,SE,136,2.0,4.0,78,0.00,,,0.00,meteobridge,2013-12-04 23:28:00,
2013-12-04 18:34:00,45.1,38.7,30.10,SSE,160,4.9,4.9,78,0.00,,,0.00,meteobridge,2013-12-04 23:34:00,
2013-12-04 18:40:00,45.1,38.7,30.10,ESE,105,4.0,4.0,78,0.00,,,0.00,meteobridge,2013-12-04 23:40:00,
2013-12-04 18:46:00,45.1,38.7,30.10,SE,129,2.9,4.0,78,0.00,,,0.00,meteobridge,2013-12-04 23:46:00,
2013-12-04 18:52:00,45.1,38.7,30.10,East,99,4.0,4.9,78,0.00,,,0.00,meteobridge,2013-12-04 23:52:00,
2013-12-04 18:59:00,45.1,39.0,30.10,SE,132,4.0,4.0,79,0.00,,,0.00,meteobridge,2013-12-04 23:59:00,
2013-12-04 19:05:00,45.1,38.7,30.10,SE,139,2.0,4.9,78,0.00,,,0.00,meteobridge,2013-12-05 00:05:00,
2013-12-04 19:11:00,45.1,38.7,30.10,SSE,165,2.0,4.0,78,0.00,,,0.00,meteobridge,2013-12-05 00:11:00,
2013-12-04 19:17:00,45.0,38.5,30.11,ESE,115,2.9,4.0,78,0.00,,,0.00,meteobridge,2013-12-05 00:17:00,
2013-12-04 19:23:00,45.0,38.8,30.11,ESE,120,2.0,4.0,79,0.00,,,0.00,meteobridge,2013-12-05 00:23:00,
2013-12-04 19:29:00,45.0,38.8,30.10,SE,145,2.9,4.0,79,0.00,,,0.00,meteobridge,2013-12-05 00:29:00,
2013-12-04 19:35:00,45.0,38.8,30.10,SE,138,2.0,6.0,79,0.00,,,0.00,meteobridge,2013-12-05 00:35:00,
2013-12-04 19:41:00,45.0,38.8,30.10,SSE,158,4.0,4.9,79,0.00,,,0.00,meteobridge,2013-12-05 00:41:00,
2013-12-04 19:47:00,45.0,39.2,30.10,SE,127,2.0,6.0,80,0.00,,,0.00,meteobridge,2013-12-05 00:47:00,
2013-12-04 19:53:00,45.0,39.2,30.10,SE,124,2.0,2.9,80,0.00,,,0.00,meteobridge,2013-12-05 00:53:00,
2013-12-04 19:59:00,45.0,39.2,30.11,SSE,158,2.0,4.0,80,0.00,,,0.00,meteobridge,2013-12-05 00:59:00,
2013-12-04 20:06:00,45.0,39.6,30.10,SE,125,2.9,6.0,81,0.00,,,0.00,meteobridge,2013-12-05 01:06:00,
2013-12-04 20:12:00,45.0,39.6,30.10,SE,131,2.9,4.0,81,0.00,,,0.00,meteobridge,2013-12-05 01:12:00,
2013-12-04 20:18:00,45.0,39.7,30.10,SE,134,2.9,4.9,82,0.00,,,0.00,meteobridge,2013-12-05 01:18:00,
2013-12-04 20:24:00,45.0,40.1,30.10,SE,131,4.0,6.9,83,0.00,,,0.00,meteobridge,2013-12-05 01:24:00,
2013-12-04 20:30:00,45.0,40.1,30.10,SE,136,2.9,4.0,83,0.00,,,0.00,meteobridge,2013-12-05 01:30:00,
2013-12-04 20:36:00,44.8,40.3,30.10,SSE,148,2.9,6.9,84,0.00,,,0.00,meteobridge,2013-12-05 01:36:00,
2013-12-04 20:42:00,44.8,40.5,30.10,East,96,2.0,2.9,85,0.00,,,0.00,meteobridge,2013-12-05 01:42:00,
2013-12-04 20:49:00,44.6,40.5,30.09,East,99,4.0,4.9,85,0.00,,,0.00,meteobridge,2013-12-05 01:49:00,
2013-12-04 20:55:00,44.4,40.5,30.09,ESE,114,2.9,2.9,86,0.00,,,0.00,meteobridge,2013-12-05 01:55:00,
2013-12-04 21:01:00,44.2,40.6,30.09,ESE,104,0.0,0.9,87,0.00,,,0.00,meteobridge,2013-12-05 02:01:00,
2013-12-04 21:07:00,44.1,40.5,30.09,ESE,107,2.0,2.9,87,0.00,,,0.00,meteobridge,2013-12-05 02:07:00,
2013-12-04 21:13:00,43.9,40.3,30.10,ESE,119,0.9,2.0,87,0.00,,,0.00,meteobridge,2013-12-05 02:13:00,
2013-12-04 21:19:00,43.5,40.3,30.09,ESE,102,0.0,2.0,88,0.00,,,0.00,meteobridge,2013-12-05 02:19:00,
2013-12-04 21:26:00,43.5,40.3,30.09,SE,143,0.0,0.0,88,0.00,,,0.00,meteobridge,2013-12-05 02:26:00,
2013-12-04 21:32:00,43.5,40.5,30.09,ESE,114,0.0,2.0,89,0.00,,,0.00,meteobridge,2013-12-05 02:32:00,
2013-12-04 21:38:00,43.7,40.6,30.09,SE,134,0.0,2.0,89,0.00,,,0.00,meteobridge,2013-12-05 02:38:00,
2013-12-04 21:44:00,43.7,40.6,30.09,SSE,161,2.0,4.9,89,0.00,,,0.00,meteobridge,2013-12-05 02:44:00,
2013-12-04 21:51:00,43.9,40.8,30.09,SSE,162,2.9,4.9,89,0.00,,,0.00,meteobridge,2013-12-05 02:51:00,
2013-12-04 21:57:00,43.9,40.8,30.09,SE,136,4.0,4.9,89,0.00,,,0.00,meteobridge,2013-12-05 02:57:00,
2013-12-04 22:03:00,44.1,41.0,30.09,SSE,155,2.9,6.0,89,0.00,,,0.00,meteobridge,2013-12-05 03:03:00,
2013-12-04 22:09:00,44.1,41.0,30.09,South,174,6.0,6.9,89,0.00,,,0.00,meteobridge,2013-12-05 03:09:00,
2013-12-04 22:15:00,44.2,41.2,30.10,East,98,2.9,4.0,89,0.00,,,0.00,meteobridge,2013-12-05 03:15:00,
2013-12-04 22:21:00,44.2,41.2,30.10,ESE,117,0.9,4.0,89,0.00,,,0.00,meteobridge,2013-12-05 03:21:00,
2013-12-04 22:27:00,44.2,41.2,30.10,SSE,162,4.9,4.9,89,0.00,,,0.00,meteobridge,2013-12-05 03:27:00,
2013-12-04 22:33:00,44.2,41.2,30.10,SE,129,2.0,4.9,89,0.00,,,0.00,meteobridge,2013-12-05 03:33:00,
2013-12-04 22:40:00,44.2,41.2,30.10,SE,131,2.9,4.0,89,0.00,,,0.00,meteobridge,2013-12-05 03:40:00,
2013-12-04 22:46:00,44.1,41.0,30.10,SSE,161,2.0,4.9,89,0.00,,,0.00,meteobridge,2013-12-05 03:46:00,
2013-12-04 22:52:00,44.1,41.0,30.10,ESE,117,4.0,4.0,89,0.00,,,0.00,meteobridge,2013-12-05 03:52:00,
2013-12-04 22:58:00,44.1,41.0,30.09,East,101,2.0,4.0,89,0.00,,,0.00,meteobridge,2013-12-05 03:58:00,
2013-12-04 23:04:00,44.2,41.2,30.08,East,92,2.9,2.9,89,0.00,,,0.00,meteobridge,2013-12-05 04:04:00,
2013-12-04 23:11:00,44.1,41.0,30.09,SSE,148,2.0,4.0,89,0.00,,,0.00,meteobridge,2013-12-05 04:11:00,
2013-12-04 23:17:00,44.1,41.0,30.09,South,176,2.0,4.0,89,0.00,,,0.00,meteobridge,2013-12-05 04:17:00,
2013-12-04 23:23:00,44.1,41.0,30.10,East,99,4.0,4.0,89,0.00,,,0.00,meteobridge,2013-12-05 04:23:00,
2013-12-04 23:29:00,44.1,41.0,30.10,SE,127,2.9,4.9,89,0.00,,,0.00,meteobridge,2013-12-05 04:29:00,
2013-12-04 23:35:00,44.1,41.0,30.09,SE,135,2.9,6.0,89,0.00,,,0.00,meteobridge,2013-12-05 04:35:00,
2013-12-04 23:41:00,44.1,40.8,30.10,East,90,2.9,4.0,88,0.00,,,0.00,meteobridge,2013-12-05 04:41:00,
2013-12-04 23:47:00,44.1,40.8,30.09,ESE,108,2.0,2.9,88,0.00,,,0.00,meteobridge,2013-12-05 04:47:00,
2013-12-04 23:53:00,44.1,40.8,30.09,SSE,148,2.9,4.0,88,0.00,,,0.00,meteobridge,2013-12-05 04:53:00,